createdAt,value
2022-11-19T00:01:15.517Z,100.00
2022-11-19T00:03:43.312Z,100.00
2022-11-19T00:06:13.145Z,100.00
2022-11-19T00:08:40.625Z,100.00
2022-11-19T00:11:13.385Z,100.00
2022-11-19T00:13:41.262Z,100.00
2022-11-19T00:16:13.292Z,100.00
2022-11-19T00:18:41.014Z,100.00
2022-11-19T00:21:13.117Z,100.00
2022-11-19T00:23:40.423Z,100.00
2022-11-19T00:26:12.554Z,100.00
2022-11-19T00:28:40.420Z,100.00
2022-11-19T00:31:09.614Z,100.00
2022-11-19T00:33:37.086Z,100.00
2022-11-19T00:36:05.132Z,100.00
2022-11-19T00:38:32.362Z,100.00
2022-11-19T00:40:59.135Z,100.00
2022-11-19T00:43:43.967Z,100.00
2022-11-19T00:46:11.106Z,100.00
2022-11-19T00:48:39.260Z,100.00
2022-11-19T00:51:07.494Z,100.00
2022-11-19T00:53:34.671Z,100.00
2022-11-19T00:56:02.215Z,100.00
2022-11-19T00:58:29.035Z,100.00
2022-11-19T01:00:55.660Z,100.00
2022-11-19T01:03:23.449Z,100.00
2022-11-19T01:05:50.049Z,100.00
2022-11-19T01:08:16.756Z,100.00
2022-11-19T01:10:44.334Z,100.00
2022-11-19T01:13:29.569Z,100.00
2022-11-19T01:15:56.339Z,100.00
2022-11-19T01:18:22.845Z,100.00
2022-11-19T01:20:49.408Z,100.00
2022-11-19T01:23:15.880Z,100.00
2022-11-19T01:25:42.356Z,100.00
2022-11-19T01:28:08.790Z,100.00
2022-11-19T01:30:35.361Z,100.00
2022-11-19T01:33:01.823Z,100.00
2022-11-19T01:35:28.298Z,100.00
2022-11-19T01:37:54.718Z,100.00
2022-11-19T01:40:21.276Z,100.00
2022-11-19T01:42:50.650Z,100.00
2022-11-19T01:45:34.700Z,100.00
2022-11-19T01:48:07.755Z,100.00
2022-11-19T01:50:42.438Z,100.00
2022-11-19T01:53:09.541Z,100.00
2022-11-19T01:55:37.975Z,100.00
2022-11-19T01:58:06.684Z,100.00
2022-11-19T02:00:33.683Z,100.00
2022-11-19T02:03:00.102Z,100.00
2022-11-19T02:05:28.210Z,100.00
2022-11-19T02:07:57.504Z,100.00
2022-11-19T02:10:49.324Z,100.00
2022-11-19T02:13:34.583Z,100.00
2022-11-19T02:16:08.950Z,100.00
2022-11-19T02:18:50.131Z,100.00
2022-11-19T02:21:27.687Z,100.00
2022-11-19T02:24:20.394Z,100.00
2022-11-19T02:27:04.913Z,100.00
2022-11-19T02:29:31.742Z,100.00
2022-11-19T02:32:05.401Z,100.00
2022-11-19T02:34:46.709Z,100.00
2022-11-19T02:37:35.202Z,100.00
2022-11-19T02:40:01.635Z,100.00
2022-11-19T02:42:33.651Z,100.00
2022-11-19T02:45:08.230Z,100.00
2022-11-19T02:47:41.791Z,100.00
2022-11-19T02:50:16.585Z,100.00
2022-11-19T02:52:45.191Z,100.00
2022-11-19T02:55:16.819Z,100.00
2022-11-19T02:57:48.870Z,100.00
2022-11-19T03:00:34.191Z,100.00
2022-11-19T03:03:36.840Z,100.00
2022-11-19T03:06:08.185Z,100.00
2022-11-19T03:08:35.333Z,100.00
2022-11-19T03:11:21.217Z,100.00
2022-11-19T03:14:13.711Z,100.00
2022-11-19T03:16:43.235Z,100.00
2022-11-19T03:19:20.680Z,100.00
2022-11-19T03:21:58.319Z,100.00
2022-11-19T03:24:35.413Z,100.00
2022-11-19T03:27:16.378Z,100.00
2022-11-19T03:29:49.673Z,100.00
2022-11-19T03:32:34.869Z,100.00
2022-11-19T03:35:06.921Z,100.00
2022-11-19T03:37:35.656Z,100.00
2022-11-19T03:40:03.921Z,100.00
2022-11-19T03:42:31.379Z,100.00
2022-11-19T03:45:08.978Z,100.00
2022-11-19T03:47:38.570Z,100.00
2022-11-19T03:50:25.329Z,100.00
2022-11-19T03:52:51.913Z,100.00
2022-11-19T03:55:18.535Z,100.00
2022-11-19T03:57:45.547Z,100.00
2022-11-19T04:00:13.038Z,100.00
2022-11-19T04:02:40.443Z,100.00
2022-11-19T04:05:07.179Z,100.00
2022-11-19T04:07:33.657Z,100.00
2022-11-19T04:10:00.161Z,100.00
2022-11-19T04:12:26.620Z,100.00
2022-11-19T04:14:53.220Z,100.00
2022-11-19T04:17:20.126Z,100.00
2022-11-19T04:19:47.055Z,100.00
2022-11-19T04:22:13.531Z,100.00
2022-11-19T04:24:40.025Z,100.00
2022-11-19T04:27:06.475Z,100.00
2022-11-19T04:29:32.938Z,100.00
2022-11-19T04:31:59.378Z,100.00
2022-11-19T04:34:25.796Z,100.00
2022-11-19T04:36:52.263Z,100.00
2022-11-19T04:39:19.132Z,100.00
2022-11-19T04:41:45.717Z,100.00
2022-11-19T04:44:12.239Z,100.00
2022-11-19T04:46:38.690Z,100.00
2022-11-19T04:49:05.237Z,100.00
2022-11-19T04:51:31.716Z,100.00
2022-11-19T04:53:58.150Z,100.00
2022-11-19T04:56:24.635Z,100.00
2022-11-19T04:58:51.123Z,100.00
2022-11-19T05:01:20.482Z,100.00
2022-11-19T05:03:47.920Z,100.00
2022-11-19T05:06:14.373Z,100.00
2022-11-19T05:08:40.819Z,100.00
2022-11-19T05:11:07.290Z,100.00
2022-11-19T05:13:33.753Z,100.00
2022-11-19T05:16:00.204Z,100.00
2022-11-19T05:18:26.661Z,100.00
2022-11-19T05:20:53.162Z,100.00
2022-11-19T05:23:19.671Z,100.00
2022-11-19T05:25:46.594Z,100.00
2022-11-19T05:28:13.188Z,100.00
2022-11-19T05:30:39.672Z,100.00
2022-11-19T05:33:06.104Z,100.00
2022-11-19T05:35:32.579Z,100.00
2022-11-19T05:37:59.090Z,100.00
2022-11-19T05:40:25.563Z,100.00
2022-11-19T05:42:52.022Z,100.00
2022-11-19T05:45:18.467Z,100.00
2022-11-19T05:47:48.585Z,100.00
2022-11-19T05:50:15.682Z,100.00
2022-11-19T05:52:42.108Z,100.00
2022-11-19T05:55:08.801Z,100.00
2022-11-19T05:57:36.573Z,100.00
2022-11-19T06:00:04.053Z,100.00
2022-11-19T06:02:30.608Z,100.00
2022-11-19T06:04:57.141Z,100.00
2022-11-19T06:07:23.671Z,100.00
2022-11-19T06:09:50.122Z,100.00
2022-11-19T06:12:16.531Z,100.00
2022-11-19T06:14:43.039Z,100.00
2022-11-19T06:17:12.450Z,100.00
2022-11-19T06:19:38.881Z,100.00
2022-11-19T06:22:05.713Z,100.00
2022-11-19T06:24:32.195Z,100.00
2022-11-19T06:26:58.685Z,100.00
2022-11-19T06:29:25.209Z,100.00
2022-11-19T06:31:51.727Z,100.00
2022-11-19T06:34:18.218Z,100.00
2022-11-19T06:36:49.254Z,100.00
2022-11-19T06:39:17.424Z,100.00
2022-11-19T06:41:44.025Z,100.00
2022-11-19T06:44:10.522Z,100.00
2022-11-19T06:46:36.976Z,100.00
2022-11-19T06:49:05.853Z,100.00
2022-11-19T06:51:32.769Z,100.00
2022-11-19T06:53:59.195Z,100.00
2022-11-19T06:56:25.691Z,100.00
2022-11-19T06:58:56.312Z,100.00
2022-11-19T07:01:22.858Z,100.00
2022-11-19T07:03:49.368Z,100.00
2022-11-19T07:06:15.861Z,100.00
2022-11-19T07:08:42.363Z,100.00
2022-11-19T07:11:27.191Z,100.00
2022-11-19T07:13:57.605Z,100.00
2022-11-19T07:16:26.027Z,100.00
2022-11-19T07:18:52.661Z,100.00
2022-11-19T07:21:19.206Z,100.00
2022-11-19T07:23:45.664Z,100.00
2022-11-19T07:26:12.790Z,100.00
2022-11-19T07:28:39.266Z,100.00
2022-11-19T07:31:07.137Z,100.00
2022-11-19T07:33:34.209Z,100.00
2022-11-19T07:36:00.673Z,100.00
2022-11-19T07:38:29.625Z,100.00
2022-11-19T07:40:58.065Z,100.00
2022-11-19T07:43:24.552Z,100.00
2022-11-19T07:45:50.954Z,100.00
2022-11-19T07:48:17.455Z,100.00
2022-11-19T07:50:55.150Z,100.00
2022-11-19T07:53:22.827Z,100.00
2022-11-19T07:55:49.371Z,100.00
2022-11-19T07:58:15.883Z,100.00
2022-11-19T08:00:42.438Z,100.00
2022-11-19T08:03:11.250Z,100.00
2022-11-19T08:05:39.281Z,100.00
2022-11-19T08:08:05.772Z,100.00
2022-11-19T08:10:32.204Z,100.00
2022-11-19T08:13:04.709Z,100.00
2022-11-19T08:15:33.261Z,100.00
2022-11-19T08:18:18.185Z,100.00
2022-11-19T08:20:46.268Z,100.00
2022-11-19T08:23:13.315Z,100.00
2022-11-19T08:25:43.317Z,100.00
2022-11-19T08:28:11.403Z,100.00
2022-11-19T08:30:40.962Z,100.00
2022-11-19T08:33:08.781Z,100.00
2022-11-19T08:35:35.310Z,100.00
2022-11-19T08:38:02.109Z,100.00
2022-11-19T08:40:28.542Z,100.00
2022-11-19T08:43:01.079Z,100.00
2022-11-19T08:45:33.862Z,100.00
2022-11-19T08:48:03.885Z,100.00
2022-11-19T08:50:31.808Z,100.00
2022-11-19T08:53:01.287Z,100.00
2022-11-19T08:55:29.885Z,100.00
2022-11-19T08:58:04.583Z,100.00
2022-11-19T09:00:32.703Z,100.00
2022-11-19T09:02:59.362Z,100.00
2022-11-19T09:05:26.002Z,100.00
2022-11-19T09:07:54.323Z,100.00
2022-11-19T09:10:20.769Z,100.00
2022-11-19T09:12:47.254Z,100.00
2022-11-19T09:15:13.720Z,100.00
2022-11-19T09:17:46.414Z,100.00
2022-11-19T09:20:13.405Z,100.00
2022-11-19T09:22:39.881Z,100.00
2022-11-19T09:25:08.901Z,100.00
2022-11-19T09:27:36.490Z,100.00
2022-11-19T09:30:04.270Z,100.00
2022-11-19T09:32:31.218Z,100.00
2022-11-19T09:34:57.616Z,100.00
2022-11-19T09:37:24.218Z,100.00
2022-11-19T09:39:50.654Z,100.00
2022-11-19T09:42:24.898Z,100.00
2022-11-19T09:45:16.269Z,100.00
2022-11-19T09:47:56.084Z,100.00
2022-11-19T09:50:25.219Z,100.00
2022-11-19T09:53:00.698Z,100.00
2022-11-19T09:55:42.434Z,100.00
2022-11-19T09:58:40.330Z,100.00
2022-11-19T10:01:07.063Z,100.00
2022-11-19T10:03:34.148Z,100.00
2022-11-19T10:06:49.666Z,100.00
2022-11-19T10:09:24.807Z,100.00
2022-11-19T10:12:07.130Z,100.00
2022-11-19T10:14:36.573Z,100.00
2022-11-19T10:17:09.630Z,100.00
2022-11-19T10:19:47.993Z,100.00
2022-11-19T10:22:54.266Z,100.00
2022-11-19T10:25:28.464Z,100.00
2022-11-19T10:28:13.415Z,100.00
2022-11-19T10:30:43.809Z,100.00
2022-11-19T10:33:16.576Z,100.00
2022-11-19T10:35:48.004Z,100.00
2022-11-19T10:38:38.188Z,100.00
2022-11-19T10:41:15.475Z,100.00
2022-11-19T10:43:52.129Z,100.00
2022-11-19T10:46:24.389Z,100.00
2022-11-19T10:48:56.429Z,100.00
2022-11-19T10:51:25.088Z,100.00
2022-11-19T10:53:54.303Z,100.00
2022-11-19T10:56:40.890Z,100.00
2022-11-19T10:59:19.056Z,100.00
2022-11-19T11:01:49.403Z,100.00
2022-11-19T11:04:21.787Z,100.00
2022-11-19T11:07:05.356Z,100.00
2022-11-19T11:09:37.885Z,100.00
2022-11-19T11:12:29.781Z,98.78
2022-11-19T11:15:07.715Z,93.60
2022-11-19T11:17:36.598Z,96.01
2022-11-19T11:20:13.805Z,99.45
2022-11-19T11:22:40.405Z,100.00
2022-11-19T11:25:28.173Z,100.00
2022-11-19T11:28:12.704Z,100.00
2022-11-19T11:31:01.756Z,100.00
2022-11-19T11:33:33.243Z,99.27
2022-11-19T11:36:05.441Z,97.54
2022-11-19T11:38:32.963Z,94.64
2022-11-19T11:44:05.791Z,98.05
2022-11-19T11:46:43.291Z,91.21
2022-11-19T11:49:22.773Z,91.25
2022-11-19T11:51:58.791Z,92.66
2022-11-19T11:54:25.225Z,92.22
2022-11-19T11:56:51.716Z,93.46
2022-11-19T11:59:31.052Z,96.87
2022-11-19T12:02:02.050Z,100.00
2022-11-19T12:04:29.077Z,100.00
2022-11-19T12:07:20.793Z,100.00
2022-11-19T12:10:03.589Z,100.00
2022-11-19T12:12:42.659Z,99.65
2022-11-19T12:15:09.042Z,93.38
2022-11-19T12:17:57.701Z,89.82
2022-11-19T12:20:44.557Z,82.92
2022-11-19T12:23:13.960Z,79.76
2022-11-19T12:26:04.531Z,79.87
2022-11-19T12:28:55.194Z,92.61
2022-11-19T12:31:40.406Z,95.60
2022-11-19T12:34:25.668Z,97.67
2022-11-19T12:37:20.758Z,99.62
2022-11-19T12:40:24.067Z,100.00
2022-11-19T12:42:56.575Z,100.00
2022-11-19T12:45:42.081Z,100.00
2022-11-19T12:48:23.599Z,100.00
2022-11-19T12:50:57.661Z,100.00
2022-11-19T12:53:34.362Z,100.00
2022-11-19T12:56:09.686Z,100.00
2022-11-19T12:59:05.540Z,100.00
2022-11-19T13:01:35.829Z,100.00
2022-11-19T13:04:20.700Z,100.00
2022-11-19T13:06:53.194Z,100.00
2022-11-19T13:09:32.822Z,99.30
2022-11-19T13:12:09.524Z,96.88
2022-11-19T13:14:53.380Z,96.91
2022-11-19T13:17:27.907Z,94.35
2022-11-19T13:20:00.796Z,95.67
2022-11-19T13:22:33.594Z,99.22
2022-11-19T13:25:05.470Z,99.28
2022-11-19T13:27:32.382Z,100.00
2022-11-19T13:30:03.272Z,100.00
2022-11-19T13:32:41.762Z,100.00
2022-11-19T13:35:37.876Z,100.00
2022-11-19T13:38:28.736Z,100.00
2022-11-19T13:41:07.273Z,100.00
2022-11-19T13:43:53.012Z,100.00
2022-11-19T13:46:24.831Z,100.00
2022-11-19T13:49:01.621Z,100.00
2022-11-19T13:51:32.378Z,100.00
2022-11-19T13:54:03.379Z,100.00
2022-11-19T13:56:47.318Z,100.00
2022-11-19T13:59:38.631Z,99.43
2022-11-19T14:02:31.095Z,98.11
2022-11-19T14:05:20.557Z,97.77
2022-11-19T14:08:17.798Z,99.98
2022-11-19T14:10:49.220Z,99.45
2022-11-19T14:13:15.587Z,100.00
2022-11-19T14:16:26.255Z,100.00
2022-11-19T14:19:17.826Z,100.00
2022-11-19T14:22:08.814Z,100.00
2022-11-19T14:24:53.629Z,100.00
2022-11-19T14:27:26.487Z,100.00
2022-11-19T14:29:54.646Z,100.00
2022-11-19T14:32:30.285Z,100.00
2022-11-19T14:35:02.954Z,100.00
2022-11-19T14:37:43.127Z,100.00
2022-11-19T14:40:12.555Z,100.00
2022-11-19T14:43:20.977Z,100.00
2022-11-19T14:46:05.596Z,100.00
2022-11-19T14:48:47.621Z,100.00
2022-11-19T14:51:17.998Z,100.00
2022-11-19T14:54:03.429Z,100.00
2022-11-19T14:56:31.914Z,100.00
2022-11-19T14:59:20.709Z,100.00
2022-11-19T15:02:10.398Z,100.00
2022-11-19T15:04:42.054Z,100.00
2022-11-19T15:07:12.122Z,100.00
2022-11-19T15:10:11.262Z,100.00
2022-11-19T15:12:43.761Z,100.00
2022-11-19T15:15:19.393Z,100.00
2022-11-19T15:18:02.327Z,100.00
2022-11-19T15:20:44.934Z,100.00
2022-11-19T15:23:31.578Z,100.00
2022-11-19T15:26:23.792Z,100.00
2022-11-19T15:29:13.417Z,100.00
2022-11-19T15:32:04.183Z,100.00
2022-11-19T15:35:09.880Z,100.00
2022-11-19T15:38:02.235Z,100.00
2022-11-19T15:40:31.179Z,100.00
2022-11-19T15:43:03.734Z,100.00
2022-11-19T15:45:37.138Z,100.00
2022-11-19T15:48:19.212Z,100.00
2022-11-19T15:50:47.041Z,100.00
2022-11-19T15:53:24.190Z,100.00
2022-11-19T15:56:07.441Z,100.00
2022-11-19T15:58:39.143Z,100.00
2022-11-19T16:01:08.817Z,100.00
2022-11-19T16:03:38.511Z,100.00
2022-11-19T16:06:20.846Z,100.00
2022-11-19T16:08:52.790Z,100.00
2022-11-19T16:11:40.434Z,100.00
2022-11-19T16:14:46.054Z,100.00
2022-11-19T16:17:43.445Z,100.00
2022-11-19T16:20:10.137Z,100.00
2022-11-19T16:22:55.095Z,100.00
2022-11-19T16:25:34.047Z,100.00
2022-11-19T16:28:05.898Z,100.00
2022-11-19T16:30:44.050Z,100.00
2022-11-19T16:33:19.618Z,100.00
2022-11-19T16:35:52.352Z,100.00
2022-11-19T16:38:26.939Z,100.00
2022-11-19T16:41:13.620Z,100.00
2022-11-19T16:43:43.761Z,100.00
2022-11-19T16:46:14.822Z,100.00
2022-11-19T16:48:50.232Z,100.00
2022-11-19T16:51:41.299Z,100.00
2022-11-19T16:54:10.554Z,100.00
2022-11-19T16:56:46.151Z,100.00
2022-11-19T16:59:23.765Z,100.00
2022-11-19T17:02:00.155Z,100.00
2022-11-19T17:04:31.326Z,100.00
2022-11-19T17:06:59.024Z,100.00
2022-11-19T17:09:44.647Z,100.00
2022-11-19T17:12:34.034Z,100.00
2022-11-19T17:15:02.351Z,100.00
2022-11-19T17:17:40.336Z,100.00
2022-11-19T17:20:29.485Z,100.00
2022-11-19T17:22:56.979Z,100.00
2022-11-19T17:25:24.179Z,100.00
2022-11-19T17:27:56.834Z,100.00
2022-11-19T17:30:24.801Z,100.00
2022-11-19T17:32:58.339Z,100.00
2022-11-19T17:35:44.163Z,100.00
2022-11-19T17:38:32.251Z,100.00
2022-11-19T17:41:05.067Z,100.00
2022-11-19T17:43:53.174Z,100.00
2022-11-19T17:46:20.365Z,100.00
2022-11-19T17:48:48.384Z,100.00
2022-11-19T17:51:18.061Z,100.00
2022-11-19T17:53:45.137Z,100.00
2022-11-19T17:56:30.377Z,100.00
2022-11-19T17:58:59.571Z,100.00
2022-11-19T18:01:26.162Z,100.00
2022-11-19T18:03:52.614Z,100.00
2022-11-19T18:06:19.186Z,100.00
2022-11-19T18:08:45.966Z,100.00
2022-11-19T18:11:18.418Z,100.00
2022-11-19T18:13:46.328Z,100.00
2022-11-19T18:16:18.723Z,100.00
2022-11-19T18:18:45.391Z,100.00
2022-11-19T18:21:13.772Z,100.00
2022-11-19T18:23:41.320Z,100.00
2022-11-19T18:26:12.053Z,100.00
2022-11-19T18:28:38.995Z,100.00
2022-11-19T18:31:07.052Z,100.00
2022-11-19T18:33:35.434Z,100.00
2022-11-19T18:36:01.875Z,100.00
2022-11-19T18:38:28.325Z,100.00
2022-11-19T18:40:54.922Z,100.00
2022-11-19T18:43:40.218Z,100.00
2022-11-19T18:46:06.782Z,100.00
2022-11-19T18:48:33.187Z,100.00
2022-11-19T18:50:59.611Z,100.00
2022-11-19T18:53:26.248Z,100.00
2022-11-19T18:55:52.731Z,100.00
2022-11-19T18:58:19.236Z,100.00
2022-11-19T19:00:45.697Z,100.00
2022-11-19T19:03:13.595Z,100.00
2022-11-19T19:05:40.385Z,100.00
2022-11-19T19:08:07.159Z,100.00
2022-11-19T19:10:34.275Z,100.00
2022-11-19T19:13:00.832Z,100.00
2022-11-19T19:15:27.435Z,100.00
2022-11-19T19:17:53.977Z,100.00
2022-11-19T19:20:20.447Z,100.00
2022-11-19T19:22:46.961Z,100.00
2022-11-19T19:25:13.426Z,100.00
2022-11-19T19:27:40.083Z,100.00
2022-11-19T19:30:07.129Z,100.00
2022-11-19T19:32:33.544Z,100.00
2022-11-19T19:35:00.035Z,100.00
2022-11-19T19:37:26.541Z,100.00
2022-11-19T19:39:53.406Z,100.00
2022-11-19T19:42:19.908Z,100.00
2022-11-19T19:44:49.421Z,100.00
2022-11-19T19:47:15.874Z,100.00
2022-11-19T19:49:42.610Z,100.00
2022-11-19T19:52:10.139Z,100.00
2022-11-19T19:54:36.581Z,100.00
2022-11-19T19:57:03.598Z,100.00
2022-11-19T19:59:30.074Z,100.00
2022-11-19T20:01:56.583Z,100.00
2022-11-19T20:04:23.077Z,100.00
2022-11-19T20:06:51.264Z,100.00
2022-11-19T20:09:17.838Z,100.00
2022-11-19T20:11:44.370Z,100.00
2022-11-19T20:14:10.948Z,100.00
2022-11-19T20:16:40.291Z,100.00
2022-11-19T20:19:07.601Z,100.00
2022-11-19T20:21:36.291Z,100.00
2022-11-19T20:24:08.716Z,100.00
2022-11-19T20:26:38.789Z,100.00
2022-11-19T20:29:06.536Z,100.00
2022-11-19T20:31:33.962Z,100.00
2022-11-19T20:34:02.942Z,100.00
2022-11-19T20:36:31.072Z,100.00
2022-11-19T20:38:57.919Z,100.00
2022-11-19T20:41:43.983Z,100.00
2022-11-19T20:44:21.664Z,100.00
2022-11-19T20:46:49.744Z,100.00
2022-11-19T20:49:17.641Z,100.00
2022-11-19T20:51:44.848Z,100.00
2022-11-19T20:54:12.234Z,100.00
2022-11-19T20:56:39.530Z,100.00
2022-11-19T20:59:06.586Z,100.00
2022-11-19T21:01:34.194Z,100.00
2022-11-19T21:04:00.927Z,100.00
2022-11-19T21:06:27.406Z,100.00
2022-11-19T21:08:53.900Z,100.00
2022-11-19T21:11:20.409Z,100.00
2022-11-19T21:13:46.822Z,100.00
2022-11-19T21:16:16.220Z,100.00
2022-11-19T21:18:43.389Z,100.00
2022-11-19T21:21:12.085Z,100.00
2022-11-19T21:23:39.974Z,100.00
2022-11-19T21:26:16.425Z,100.00
2022-11-19T21:28:47.877Z,100.00
2022-11-19T21:31:19.101Z,100.00
2022-11-19T21:33:46.144Z,100.00
2022-11-19T21:36:13.468Z,100.00
2022-11-19T21:38:40.142Z,100.00
2022-11-19T21:41:07.542Z,100.00
2022-11-19T21:43:34.040Z,100.00
2022-11-19T21:46:00.588Z,100.00
2022-11-19T21:48:27.327Z,100.00
2022-11-19T21:50:54.079Z,100.00
2022-11-19T21:53:21.099Z,100.00
2022-11-19T21:55:48.344Z,100.00
2022-11-19T21:58:15.615Z,100.00
2022-11-19T22:00:43.913Z,100.00
2022-11-19T22:03:10.566Z,100.00
2022-11-19T22:05:36.993Z,100.00
2022-11-19T22:08:03.801Z,100.00
2022-11-19T22:10:30.461Z,100.00
2022-11-19T22:13:00.078Z,100.00
2022-11-19T22:15:27.079Z,100.00
2022-11-19T22:17:54.049Z,100.00
2022-11-19T22:20:23.882Z,100.00
2022-11-19T22:22:50.366Z,100.00
2022-11-19T22:25:16.834Z,100.00
2022-11-19T22:27:43.423Z,100.00
2022-11-19T22:30:10.703Z,100.00
2022-11-19T22:32:37.254Z,100.00
2022-11-19T22:35:04.692Z,100.00
2022-11-19T22:37:31.247Z,100.00
2022-11-19T22:39:57.697Z,100.00
2022-11-19T22:42:24.196Z,100.00
2022-11-19T22:44:51.481Z,100.00
2022-11-19T22:47:17.983Z,100.00
2022-11-19T22:49:44.466Z,100.00
2022-11-19T22:52:10.873Z,100.00
2022-11-19T22:54:41.415Z,100.00
2022-11-19T22:57:08.435Z,100.00
2022-11-19T22:59:35.437Z,100.00
2022-11-19T23:02:01.918Z,100.00
2022-11-19T23:04:29.091Z,100.00
2022-11-19T23:06:55.776Z,100.00
2022-11-19T23:09:22.569Z,100.00
2022-11-19T23:12:08.046Z,100.00
2022-11-19T23:14:34.496Z,100.00
2022-11-19T23:17:00.968Z,100.00
2022-11-19T23:19:27.382Z,100.00
2022-11-19T23:21:53.845Z,100.00
2022-11-19T23:24:20.482Z,100.00
2022-11-19T23:26:46.971Z,100.00
2022-11-19T23:29:13.430Z,100.00
2022-11-19T23:31:40.948Z,100.00
2022-11-19T23:34:08.078Z,100.00
2022-11-19T23:36:37.596Z,100.00
2022-11-19T23:39:05.437Z,100.00
2022-11-19T23:41:33.736Z,100.00
2022-11-19T23:44:01.112Z,100.00
2022-11-19T23:46:30.240Z,100.00
2022-11-19T23:48:58.217Z,100.00
2022-11-19T23:51:27.447Z,100.00
2022-11-19T23:53:54.632Z,100.00
2022-11-19T23:56:23.216Z,100.00
2022-11-19T23:58:49.984Z,100.00
